Pays
Station

 

Conditions  météo  pour  Tarbes/Ossun  -  France    France

  
4 °C
    
 
 

METAR pour Tarbes/Ossun :

LFBT 230600Z AUTO 18002KT CAVOK 04/00 Q1027 NOSIG

 

Voici le bulletin pour Tarbes/Ossun - France.
 
Le bulletin a été fait il y a 30 minutes, à 06:00 UTC .
Le vent soufflait à la vitesse de 1.0 mètres par seconde de Sud (180°).
 
La température était de 4 °C
La pression atmosphérique était de 1027 hPa.
Il y avait pas de nuages en-dessous de 1500 mètres et pas de cumulonimbus.
 
La visibilité globale était de supérieure à 10 kilomètres.
 

 
 
 

Pays :   A   B   C   D   E   F   G   H   I   J   K   L   M   N   O   P   Q   R   S   T   U   V   W   Y   Z

 

Partenaires :  Info Météo avec Met'info
Météo Marine avec MeteoMarine.net
Infos Site  |  Infos Légales  |  Crédits  |  Confidentialité
Contactez-nous  |  Ajouter aux favoris
© 2013-2019 METAR - Tous droits réservés